sensor_id;sensor_type;location;lat;lon;timestamp;temperature;humidity
39219;DHT22;24934;52.752;6.964;2023-02-13T00:01:14;6.60;99.90
39219;DHT22;24934;52.752;6.964;2023-02-13T00:03:40;6.50;99.90
39219;DHT22;24934;52.752;6.964;2023-02-13T00:06:05;6.60;99.90
39219;DHT22;24934;52.752;6.964;2023-02-13T00:08:31;6.50;99.90
39219;DHT22;24934;52.752;6.964;2023-02-13T00:10:57;6.50;99.90
39219;DHT22;24934;52.752;6.964;2023-02-13T00:13:22;6.50;99.90
39219;DHT22;24934;52.752;6.964;2023-02-13T00:15:56;6.50;99.90
39219;DHT22;24934;52.752;6.964;2023-02-13T00:18:21;6.50;99.90
39219;DHT22;24934;52.752;6.964;2023-02-13T00:23:24;6.50;99.90
39219;DHT22;24934;52.752;6.964;2023-02-13T00:25:50;6.50;99.90
39219;DHT22;24934;52.752;6.964;2023-02-13T00:28:15;6.50;99.90
39219;DHT22;24934;52.752;6.964;2023-02-13T00:30:41;6.40;99.90
39219;DHT22;24934;52.752;6.964;2023-02-13T00:33:07;6.50;99.90
39219;DHT22;24934;52.752;6.964;2023-02-13T00:35:32;6.40;99.90
39219;DHT22;24934;52.752;6.964;2023-02-13T00:38:00;6.40;99.90
39219;DHT22;24934;52.752;6.964;2023-02-13T00:40:26;6.50;99.90
39219;DHT22;24934;52.752;6.964;2023-02-13T00:42:51;6.40;99.90
39219;DHT22;24934;52.752;6.964;2023-02-13T00:45:17;6.40;99.90
39219;DHT22;24934;52.752;6.964;2023-02-13T00:47:42;6.40;99.90
39219;DHT22;24934;52.752;6.964;2023-02-13T00:50:08;6.40;99.90
39219;DHT22;24934;52.752;6.964;2023-02-13T00:52:34;6.40;99.90
39219;DHT22;24934;52.752;6.964;2023-02-13T00:55:00;6.40;99.90
39219;DHT22;24934;52.752;6.964;2023-02-13T00:57:25;6.40;99.90
39219;DHT22;24934;52.752;6.964;2023-02-13T00:59:51;6.40;99.90
39219;DHT22;24934;52.752;6.964;2023-02-13T01:02:17;6.40;99.90
39219;DHT22;24934;52.752;6.964;2023-02-13T01:04:42;6.40;99.90
39219;DHT22;24934;52.752;6.964;2023-02-13T01:07:08;6.40;99.90
39219;DHT22;24934;52.752;6.964;2023-02-13T01:09:33;6.40;99.90
39219;DHT22;24934;52.752;6.964;2023-02-13T01:11:59;6.40;99.90
39219;DHT22;24934;52.752;6.964;2023-02-13T01:14:25;6.40;99.90
39219;DHT22;24934;52.752;6.964;2023-02-13T01:16:50;6.40;99.90
39219;DHT22;24934;52.752;6.964;2023-02-13T01:19:16;6.40;99.90
39219;DHT22;24934;52.752;6.964;2023-02-13T01:21:42;6.40;99.90
39219;DHT22;24934;52.752;6.964;2023-02-13T01:24:08;6.40;99.90
39219;DHT22;24934;52.752;6.964;2023-02-13T01:26:33;6.40;99.90
39219;DHT22;24934;52.752;6.964;2023-02-13T01:28:59;6.40;99.90
39219;DHT22;24934;52.752;6.964;2023-02-13T01:31:25;6.40;99.90
39219;DHT22;24934;52.752;6.964;2023-02-13T01:33:51;6.40;99.90
39219;DHT22;24934;52.752;6.964;2023-02-13T01:36:16;6.40;99.90
39219;DHT22;24934;52.752;6.964;2023-02-13T01:38:42;6.40;99.90
39219;DHT22;24934;52.752;6.964;2023-02-13T01:41:08;6.40;99.90
39219;DHT22;24934;52.752;6.964;2023-02-13T01:43:55;6.40;99.90
39219;DHT22;24934;52.752;6.964;2023-02-13T01:48:51;6.40;99.90
39219;DHT22;24934;52.752;6.964;2023-02-13T01:51:26;6.40;99.90
39219;DHT22;24934;52.752;6.964;2023-02-13T01:54:01;6.40;99.90
39219;DHT22;24934;52.752;6.964;2023-02-13T01:59:03;6.40;99.90
39219;DHT22;24934;52.752;6.964;2023-02-13T02:01:30;6.40;99.90
39219;DHT22;24934;52.752;6.964;2023-02-13T02:04:03;6.40;99.90
39219;DHT22;24934;52.752;6.964;2023-02-13T02:06:34;6.40;99.90
39219;DHT22;24934;52.752;6.964;2023-02-13T02:09:04;6.40;99.90
39219;DHT22;24934;52.752;6.964;2023-02-13T02:12:03;6.40;99.90
39219;DHT22;24934;52.752;6.964;2023-02-13T02:14:30;6.40;99.90
39219;DHT22;24934;52.752;6.964;2023-02-13T02:16:56;6.40;99.90
39219;DHT22;24934;52.752;6.964;2023-02-13T02:25:15;6.40;99.90
39219;DHT22;24934;52.752;6.964;2023-02-13T02:58:21;6.40;99.90
39219;DHT22;24934;52.752;6.964;2023-02-13T03:01:10;6.40;99.90
39219;DHT22;24934;52.752;6.964;2023-02-13T03:03:56;6.30;99.90
39219;DHT22;24934;52.752;6.964;2023-02-13T03:06:53;6.30;99.90
39219;DHT22;24934;52.752;6.964;2023-02-13T03:09:31;6.30;99.90
39219;DHT22;24934;52.752;6.964;2023-02-13T03:12:20;6.30;99.90
39219;DHT22;24934;52.752;6.964;2023-02-13T03:15:05;6.40;99.90
39219;DHT22;24934;52.752;6.964;2023-02-13T03:17:31;6.30;99.90
39219;DHT22;24934;52.752;6.964;2023-02-13T03:20:41;6.40;99.90
39219;DHT22;24934;52.752;6.964;2023-02-13T03:28:44;6.40;99.90
39219;DHT22;24934;52.752;6.964;2023-02-13T03:31:43;6.40;99.90
39219;DHT22;24934;52.752;6.964;2023-02-13T03:34:21;6.40;99.90
39219;DHT22;24934;52.752;6.964;2023-02-13T03:37:00;6.30;99.90
39219;DHT22;24934;52.752;6.964;2023-02-13T03:40:06;6.30;99.90
39219;DHT22;24934;52.752;6.964;2023-02-13T03:42:46;6.30;99.90
39219;DHT22;24934;52.752;6.964;2023-02-13T03:45:28;6.30;99.90
39219;DHT22;24934;52.752;6.964;2023-02-13T03:48:15;6.30;99.90
39219;DHT22;24934;52.752;6.964;2023-02-13T03:51:01;6.30;99.90
39219;DHT22;24934;52.752;6.964;2023-02-13T03:53:30;6.30;99.90
39219;DHT22;24934;52.752;6.964;2023-02-13T03:55:58;6.30;99.90
39219;DHT22;24934;52.752;6.964;2023-02-13T03:58:48;6.20;99.90
39219;DHT22;24934;52.752;6.964;2023-02-13T04:01:34;6.20;99.90
39219;DHT22;24934;52.752;6.964;2023-02-13T04:05:09;6.20;99.90
39219;DHT22;24934;52.752;6.964;2023-02-13T04:07:09;6.30;99.90
39219;DHT22;24934;52.752;6.964;2023-02-13T04:09:39;6.20;99.90
39219;DHT22;24934;52.752;6.964;2023-02-13T04:12:21;6.20;99.90
39219;DHT22;24934;52.752;6.964;2023-02-13T04:15:08;6.30;99.90
39219;DHT22;24934;52.752;6.964;2023-02-13T04:17:42;6.20;99.90
39219;DHT22;24934;52.752;6.964;2023-02-13T04:20:10;6.20;99.90
39219;DHT22;24934;52.752;6.964;2023-02-13T04:22:44;6.20;99.90
39219;DHT22;24934;52.752;6.964;2023-02-13T04:25:12;6.20;99.90
39219;DHT22;24934;52.752;6.964;2023-02-13T04:27:39;6.20;99.90
39219;DHT22;24934;52.752;6.964;2023-02-13T04:30:05;6.20;99.90
39219;DHT22;24934;52.752;6.964;2023-02-13T04:32:31;6.20;99.90
39219;DHT22;24934;52.752;6.964;2023-02-13T04:34:56;6.20;99.90
39219;DHT22;24934;52.752;6.964;2023-02-13T04:37:22;6.20;99.90
39219;DHT22;24934;52.752;6.964;2023-02-13T04:39:48;6.20;99.90
39219;DHT22;24934;52.752;6.964;2023-02-13T04:42:14;6.20;99.90
39219;DHT22;24934;52.752;6.964;2023-02-13T04:44:40;6.10;99.90
39219;DHT22;24934;52.752;6.964;2023-02-13T04:47:05;6.20;99.90
39219;DHT22;24934;52.752;6.964;2023-02-13T04:49:31;6.20;99.90
39219;DHT22;24934;52.752;6.964;2023-02-13T04:51:57;6.20;99.90
39219;DHT22;24934;52.752;6.964;2023-02-13T04:54:22;6.10;99.90
39219;DHT22;24934;52.752;6.964;2023-02-13T04:56:48;6.10;99.90
39219;DHT22;24934;52.752;6.964;2023-02-13T04:59:13;6.10;99.90
39219;DHT22;24934;52.752;6.964;2023-02-13T05:01:39;6.10;99.90
39219;DHT22;24934;52.752;6.964;2023-02-13T05:04:05;6.10;99.90
39219;DHT22;24934;52.752;6.964;2023-02-13T05:06:30;6.10;99.90
39219;DHT22;24934;52.752;6.964;2023-02-13T05:08:56;6.10;99.90
39219;DHT22;24934;52.752;6.964;2023-02-13T05:11:21;6.10;99.90
39219;DHT22;24934;52.752;6.964;2023-02-13T05:13:47;6.10;99.90
39219;DHT22;24934;52.752;6.964;2023-02-13T05:16:13;6.10;99.90
39219;DHT22;24934;52.752;6.964;2023-02-13T05:18:38;6.10;99.90
39219;DHT22;24934;52.752;6.964;2023-02-13T05:21:04;6.10;99.90
39219;DHT22;24934;52.752;6.964;2023-02-13T05:23:48;6.10;99.90
39219;DHT22;24934;52.752;6.964;2023-02-13T05:26:14;6.10;99.90
39219;DHT22;24934;52.752;6.964;2023-02-13T05:28:40;6.10;99.90
39219;DHT22;24934;52.752;6.964;2023-02-13T05:31:24;6.10;99.90
39219;DHT22;24934;52.752;6.964;2023-02-13T05:33:49;6.10;99.90
39219;DHT22;24934;52.752;6.964;2023-02-13T05:36:15;6.10;99.90
39219;DHT22;24934;52.752;6.964;2023-02-13T05:38:40;6.10;99.90
39219;DHT22;24934;52.752;6.964;2023-02-13T05:41:06;6.10;99.90
39219;DHT22;24934;52.752;6.964;2023-02-13T05:43:32;6.00;99.90
39219;DHT22;24934;52.752;6.964;2023-02-13T05:46:05;6.10;99.90
39219;DHT22;24934;52.752;6.964;2023-02-13T05:48:31;6.00;99.90
39219;DHT22;24934;52.752;6.964;2023-02-13T05:50:57;6.10;99.90
39219;DHT22;24934;52.752;6.964;2023-02-13T05:53:23;6.10;99.90
39219;DHT22;24934;52.752;6.964;2023-02-13T05:55:48;6.10;99.90
39219;DHT22;24934;52.752;6.964;2023-02-13T05:58:20;6.00;99.90
39219;DHT22;24934;52.752;6.964;2023-02-13T06:00:46;6.00;99.90
39219;DHT22;24934;52.752;6.964;2023-02-13T06:03:12;6.00;99.90
39219;DHT22;24934;52.752;6.964;2023-02-13T06:05:38;6.00;99.90
39219;DHT22;24934;52.752;6.964;2023-02-13T06:08:04;6.00;99.90
39219;DHT22;24934;52.752;6.964;2023-02-13T06:10:29;6.00;99.90
39219;DHT22;24934;52.752;6.964;2023-02-13T06:12:58;6.00;99.90
39219;DHT22;24934;52.752;6.964;2023-02-13T06:15:24;6.00;99.90
39219;DHT22;24934;52.752;6.964;2023-02-13T06:17:49;6.00;99.90
39219;DHT22;24934;52.752;6.964;2023-02-13T06:20:15;5.90;99.90
39219;DHT22;24934;52.752;6.964;2023-02-13T06:22:40;6.00;99.90
39219;DHT22;24934;52.752;6.964;2023-02-13T06:25:06;6.00;99.90
39219;DHT22;24934;52.752;6.964;2023-02-13T06:27:32;6.00;99.90
39219;DHT22;24934;52.752;6.964;2023-02-13T06:29:57;6.00;99.90
39219;DHT22;24934;52.752;6.964;2023-02-13T06:32:23;6.00;99.90
39219;DHT22;24934;52.752;6.964;2023-02-13T06:34:48;6.00;99.90
39219;DHT22;24934;52.752;6.964;2023-02-13T06:37:14;6.00;99.90
39219;DHT22;24934;52.752;6.964;2023-02-13T06:39:39;6.00;99.90
39219;DHT22;24934;52.752;6.964;2023-02-13T06:42:05;6.00;99.90
39219;DHT22;24934;52.752;6.964;2023-02-13T06:44:31;6.00;99.90
39219;DHT22;24934;52.752;6.964;2023-02-13T06:46:59;6.00;99.90
39219;DHT22;24934;52.752;6.964;2023-02-13T06:49:24;6.00;99.90
39219;DHT22;24934;52.752;6.964;2023-02-13T06:51:50;6.00;99.90
39219;DHT22;24934;52.752;6.964;2023-02-13T06:54:16;6.00;99.90
39219;DHT22;24934;52.752;6.964;2023-02-13T06:56:41;6.00;99.90
39219;DHT22;24934;52.752;6.964;2023-02-13T06:59:07;6.00;99.90
39219;DHT22;24934;52.752;6.964;2023-02-13T07:01:33;6.00;99.90
39219;DHT22;24934;52.752;6.964;2023-02-13T07:03:58;6.00;99.90
39219;DHT22;24934;52.752;6.964;2023-02-13T07:06:24;6.00;99.90
39219;DHT22;24934;52.752;6.964;2023-02-13T07:08:49;6.10;99.90
39219;DHT22;24934;52.752;6.964;2023-02-13T07:11:21;6.10;99.90
39219;DHT22;24934;52.752;6.964;2023-02-13T07:13:47;6.10;99.90
39219;DHT22;24934;52.752;6.964;2023-02-13T07:16:13;6.10;99.90
39219;DHT22;24934;52.752;6.964;2023-02-13T07:18:39;6.10;99.90
39219;DHT22;24934;52.752;6.964;2023-02-13T07:21:05;6.10;99.90
39219;DHT22;24934;52.752;6.964;2023-02-13T07:23:31;6.00;99.90
39219;DHT22;24934;52.752;6.964;2023-02-13T07:26:00;6.10;99.90
39219;DHT22;24934;52.752;6.964;2023-02-13T07:28:29;6.10;99.90
39219;DHT22;24934;52.752;6.964;2023-02-13T07:30:55;6.10;99.90
39219;DHT22;24934;52.752;6.964;2023-02-13T07:33:21;6.10;99.90
39219;DHT22;24934;52.752;6.964;2023-02-13T07:35:48;6.10;99.90
39219;DHT22;24934;52.752;6.964;2023-02-13T07:38:15;6.20;99.90
39219;DHT22;24934;52.752;6.964;2023-02-13T07:40:41;6.20;99.90
39219;DHT22;24934;52.752;6.964;2023-02-13T07:43:06;6.20;99.90
39219;DHT22;24934;52.752;6.964;2023-02-13T07:45:32;6.20;99.90
39219;DHT22;24934;52.752;6.964;2023-02-13T07:47:58;6.20;99.90
39219;DHT22;24934;52.752;6.964;2023-02-13T07:50:24;6.20;99.90
39219;DHT22;24934;52.752;6.964;2023-02-13T07:52:57;6.30;99.90
39219;DHT22;24934;52.752;6.964;2023-02-13T07:55:23;6.30;99.90
39219;DHT22;24934;52.752;6.964;2023-02-13T07:57:49;6.30;99.90
39219;DHT22;24934;52.752;6.964;2023-02-13T08:00:16;6.30;99.90
39219;DHT22;24934;52.752;6.964;2023-02-13T08:02:42;6.40;99.90
39219;DHT22;24934;52.752;6.964;2023-02-13T08:05:07;6.40;99.90
39219;DHT22;24934;52.752;6.964;2023-02-13T08:07:33;6.40;99.90
39219;DHT22;24934;52.752;6.964;2023-02-13T08:09:59;6.40;99.90
39219;DHT22;24934;52.752;6.964;2023-02-13T08:12:43;6.40;99.90
39219;DHT22;24934;52.752;6.964;2023-02-13T08:15:13;6.40;99.90
39219;DHT22;24934;52.752;6.964;2023-02-13T08:17:39;6.40;99.90
39219;DHT22;24934;52.752;6.964;2023-02-13T08:20:06;6.50;99.90
39219;DHT22;24934;52.752;6.964;2023-02-13T08:22:38;6.50;99.90
39219;DHT22;24934;52.752;6.964;2023-02-13T08:25:05;6.50;99.90
39219;DHT22;24934;52.752;6.964;2023-02-13T08:27:31;6.60;99.90
39219;DHT22;24934;52.752;6.964;2023-02-13T08:29:57;6.70;99.90
39219;DHT22;24934;52.752;6.964;2023-02-13T08:32:24;6.70;99.90
39219;DHT22;24934;52.752;6.964;2023-02-13T08:34:50;6.80;99.90
39219;DHT22;24934;52.752;6.964;2023-02-13T08:37:16;6.80;99.90
39219;DHT22;24934;52.752;6.964;2023-02-13T08:39:42;6.90;99.90
39219;DHT22;24934;52.752;6.964;2023-02-13T08:42:08;6.90;99.90
39219;DHT22;24934;52.752;6.964;2023-02-13T08:44:33;6.80;99.90
39219;DHT22;24934;52.752;6.964;2023-02-13T08:46:59;6.90;99.90
39219;DHT22;24934;52.752;6.964;2023-02-13T08:49:29;6.90;99.90
39219;DHT22;24934;52.752;6.964;2023-02-13T08:51:55;6.90;99.90
39219;DHT22;24934;52.752;6.964;2023-02-13T08:54:20;7.00;99.90
39219;DHT22;24934;52.752;6.964;2023-02-13T08:56:48;7.10;99.90
39219;DHT22;24934;52.752;6.964;2023-02-13T08:59:14;7.10;99.90
39219;DHT22;24934;52.752;6.964;2023-02-13T09:01:39;7.10;99.90
39219;DHT22;24934;52.752;6.964;2023-02-13T09:04:05;7.10;99.90
39219;DHT22;24934;52.752;6.964;2023-02-13T09:06:31;7.10;99.90
39219;DHT22;24934;52.752;6.964;2023-02-13T09:08:56;7.20;99.90
39219;DHT22;24934;52.752;6.964;2023-02-13T09:11:22;7.20;99.90
39219;DHT22;24934;52.752;6.964;2023-02-13T09:13:48;7.20;99.90
39219;DHT22;24934;52.752;6.964;2023-02-13T09:16:14;7.20;99.90
39219;DHT22;24934;52.752;6.964;2023-02-13T09:18:40;7.20;99.90
39219;DHT22;24934;52.752;6.964;2023-02-13T09:21:08;7.30;99.90
39219;DHT22;24934;52.752;6.964;2023-02-13T09:23:37;7.30;99.90
39219;DHT22;24934;52.752;6.964;2023-02-13T09:26:06;7.30;99.90
39219;DHT22;24934;52.752;6.964;2023-02-13T09:28:33;7.40;99.90
39219;DHT22;24934;52.752;6.964;2023-02-13T09:31:03;7.40;99.90
39219;DHT22;24934;52.752;6.964;2023-02-13T09:33:29;7.40;99.90
39219;DHT22;24934;52.752;6.964;2023-02-13T09:35:54;7.40;99.90
39219;DHT22;24934;52.752;6.964;2023-02-13T09:38:20;7.40;99.90
39219;DHT22;24934;52.752;6.964;2023-02-13T09:41:01;7.50;99.90
39219;DHT22;24934;52.752;6.964;2023-02-13T09:43:28;7.50;99.90
39219;DHT22;24934;52.752;6.964;2023-02-13T09:45:58;7.60;99.90
39219;DHT22;24934;52.752;6.964;2023-02-13T09:48:36;7.60;99.90
39219;DHT22;24934;52.752;6.964;2023-02-13T09:51:03;7.60;99.90
39219;DHT22;24934;52.752;6.964;2023-02-13T09:53:29;7.60;99.90
39219;DHT22;24934;52.752;6.964;2023-02-13T09:56:10;7.70;99.90
39219;DHT22;24934;52.752;6.964;2023-02-13T09:58:45;7.80;99.90
39219;DHT22;24934;52.752;6.964;2023-02-13T10:01:34;7.80;99.90
39219;DHT22;24934;52.752;6.964;2023-02-13T10:09:43;7.90;99.90
39219;DHT22;24934;52.752;6.964;2023-02-13T10:12:44;8.00;99.90
39219;DHT22;24934;52.752;6.964;2023-02-13T10:18:11;8.10;99.90
39219;DHT22;24934;52.752;6.964;2023-02-13T10:20:52;8.20;99.90
39219;DHT22;24934;52.752;6.964;2023-02-13T10:23:29;8.20;99.90
39219;DHT22;24934;52.752;6.964;2023-02-13T10:26:00;8.40;99.90
39219;DHT22;24934;52.752;6.964;2023-02-13T10:28:43;8.40;99.90
39219;DHT22;24934;52.752;6.964;2023-02-13T10:31:17;8.50;99.90
39219;DHT22;24934;52.752;6.964;2023-02-13T10:33:51;8.60;99.90
39219;DHT22;24934;52.752;6.964;2023-02-13T10:36:27;8.60;99.90
39219;DHT22;24934;52.752;6.964;2023-02-13T10:39:10;8.60;99.90
39219;DHT22;24934;52.752;6.964;2023-02-13T10:42:05;8.70;99.90
39219;DHT22;24934;52.752;6.964;2023-02-13T10:52:47;9.00;99.90
39219;DHT22;24934;52.752;6.964;2023-02-13T10:58:14;9.10;99.90
39219;DHT22;24934;52.752;6.964;2023-02-13T11:00:56;9.20;99.90
39219;DHT22;24934;52.752;6.964;2023-02-13T11:03:25;9.30;99.90
39219;DHT22;24934;52.752;6.964;2023-02-13T11:05:53;9.30;99.90
39219;DHT22;24934;52.752;6.964;2023-02-13T11:08:34;9.20;99.90
39219;DHT22;24934;52.752;6.964;2023-02-13T11:11:03;9.30;99.90
39219;DHT22;24934;52.752;6.964;2023-02-13T11:13:29;9.40;99.90
39219;DHT22;24934;52.752;6.964;2023-02-13T11:16:02;9.40;99.90
39219;DHT22;24934;52.752;6.964;2023-02-13T11:18:31;9.40;99.90
39219;DHT22;24934;52.752;6.964;2023-02-13T11:21:19;9.50;99.90
39219;DHT22;24934;52.752;6.964;2023-02-13T11:23:50;9.50;99.90
39219;DHT22;24934;52.752;6.964;2023-02-13T11:26:34;9.50;99.90
39219;DHT22;24934;52.752;6.964;2023-02-13T11:29:13;9.40;99.90
39219;DHT22;24934;52.752;6.964;2023-02-13T11:31:40;9.60;99.90
39219;DHT22;24934;52.752;6.964;2023-02-13T11:36:51;9.90;99.90
39219;DHT22;24934;52.752;6.964;2023-02-13T11:39:21;10.00;99.90
39219;DHT22;24934;52.752;6.964;2023-02-13T11:41:48;10.00;99.90
39219;DHT22;24934;52.752;6.964;2023-02-13T11:44:29;10.20;99.90
39219;DHT22;24934;52.752;6.964;2023-02-13T11:46:57;10.30;99.90
39219;DHT22;24934;52.752;6.964;2023-02-13T11:49:25;10.20;99.90
39219;DHT22;24934;52.752;6.964;2023-02-13T11:51:58;10.30;99.90
39219;DHT22;24934;52.752;6.964;2023-02-13T11:54:39;10.20;99.90
39219;DHT22;24934;52.752;6.964;2023-02-13T11:57:23;10.10;99.90
39219;DHT22;24934;52.752;6.964;2023-02-13T11:59:52;10.10;99.90
39219;DHT22;24934;52.752;6.964;2023-02-13T12:02:19;10.10;99.90
39219;DHT22;24934;52.752;6.964;2023-02-13T12:04:46;10.10;99.90
39219;DHT22;24934;52.752;6.964;2023-02-13T12:09:39;10.20;99.90
39219;DHT22;24934;52.752;6.964;2023-02-13T12:12:05;10.10;99.90
39219;DHT22;24934;52.752;6.964;2023-02-13T12:14:41;10.00;99.90
39219;DHT22;24934;52.752;6.964;2023-02-13T12:17:21;10.00;99.90
39219;DHT22;24934;52.752;6.964;2023-02-13T12:19:48;10.00;99.90
39219;DHT22;24934;52.752;6.964;2023-02-13T12:41:33;11.00;99.90
39219;DHT22;24934;52.752;6.964;2023-02-13T12:46:53;11.40;99.90
39219;DHT22;24934;52.752;6.964;2023-02-13T12:52:31;11.40;99.90
39219;DHT22;24934;52.752;6.964;2023-02-13T12:55:21;11.10;99.90
39219;DHT22;24934;52.752;6.964;2023-02-13T13:08:47;10.70;99.90
39219;DHT22;24934;52.752;6.964;2023-02-13T13:19:32;10.40;99.90
39219;DHT22;24934;52.752;6.964;2023-02-13T13:22:04;10.40;99.90
39219;DHT22;24934;52.752;6.964;2023-02-13T13:24:34;10.60;99.90
39219;DHT22;24934;52.752;6.964;2023-02-13T13:27:02;10.70;99.90
39219;DHT22;24934;52.752;6.964;2023-02-13T13:29:40;10.70;99.90
39219;DHT22;24934;52.752;6.964;2023-02-13T13:32:16;10.70;99.90
39219;DHT22;24934;52.752;6.964;2023-02-13T13:34:42;10.80;99.90
39219;DHT22;24934;52.752;6.964;2023-02-13T13:37:29;10.70;99.90
39219;DHT22;24934;52.752;6.964;2023-02-13T13:43:04;10.50;99.90
39219;DHT22;24934;52.752;6.964;2023-02-13T13:46:03;10.40;99.90
39219;DHT22;24934;52.752;6.964;2023-02-13T13:51:21;10.00;99.90
39219;DHT22;24934;52.752;6.964;2023-02-13T14:05:00;9.50;99.90
39219;DHT22;24934;52.752;6.964;2023-02-13T14:07:33;9.40;99.90
39219;DHT22;24934;52.752;6.964;2023-02-13T14:09:59;9.30;99.90
39219;DHT22;24934;52.752;6.964;2023-02-13T14:12:36;9.40;99.90
39219;DHT22;24934;52.752;6.964;2023-02-13T14:15:02;9.50;99.90
39219;DHT22;24934;52.752;6.964;2023-02-13T14:20:34;9.70;99.90
39219;DHT22;24934;52.752;6.964;2023-02-13T14:26:20;9.90;99.90
39219;DHT22;24934;52.752;6.964;2023-02-13T14:31:20;9.90;99.90
39219;DHT22;24934;52.752;6.964;2023-02-13T14:34:17;10.00;99.90
39219;DHT22;24934;52.752;6.964;2023-02-13T14:36:46;10.20;99.90
39219;DHT22;24934;52.752;6.964;2023-02-13T14:39:32;10.20;99.90
39219;DHT22;24934;52.752;6.964;2023-02-13T14:42:01;10.30;99.90
39219;DHT22;24934;52.752;6.964;2023-02-13T14:49:46;10.20;99.90
39219;DHT22;24934;52.752;6.964;2023-02-13T14:52:18;10.20;99.90
39219;DHT22;24934;52.752;6.964;2023-02-13T14:54:53;10.30;99.90
39219;DHT22;24934;52.752;6.964;2023-02-13T14:57:29;10.30;99.90
39219;DHT22;24934;52.752;6.964;2023-02-13T15:00:03;10.20;99.90
39219;DHT22;24934;52.752;6.964;2023-02-13T15:02:45;10.20;99.90
39219;DHT22;24934;52.752;6.964;2023-02-13T15:05:17;10.30;99.90
39219;DHT22;24934;52.752;6.964;2023-02-13T15:07:48;10.30;99.90
39219;DHT22;24934;52.752;6.964;2023-02-13T15:13:31;10.20;99.90
39219;DHT22;24934;52.752;6.964;2023-02-13T15:16:01;10.30;99.90
39219;DHT22;24934;52.752;6.964;2023-02-13T15:18:32;10.10;99.90
39219;DHT22;24934;52.752;6.964;2023-02-13T15:21:00;10.00;99.90
39219;DHT22;24934;52.752;6.964;2023-02-13T15:23:31;9.90;99.90
39219;DHT22;24934;52.752;6.964;2023-02-13T15:26:06;9.80;99.90
39219;DHT22;24934;52.752;6.964;2023-02-13T15:28:34;9.70;99.90
39219;DHT22;24934;52.752;6.964;2023-02-13T15:33:28;9.60;99.90
39219;DHT22;24934;52.752;6.964;2023-02-13T15:38:32;9.60;99.90
39219;DHT22;24934;52.752;6.964;2023-02-13T15:41:03;9.50;99.90
39219;DHT22;24934;52.752;6.964;2023-02-13T15:43:31;9.40;99.90
39219;DHT22;24934;52.752;6.964;2023-02-13T15:46:02;9.40;99.90
39219;DHT22;24934;52.752;6.964;2023-02-13T15:48:30;9.40;99.90
39219;DHT22;24934;52.752;6.964;2023-02-13T15:50:57;9.30;99.90
39219;DHT22;24934;52.752;6.964;2023-02-13T15:53:23;9.40;99.90
39219;DHT22;24934;52.752;6.964;2023-02-13T15:56:01;9.30;99.90
39219;DHT22;24934;52.752;6.964;2023-02-13T15:58:32;9.20;99.90
39219;DHT22;24934;52.752;6.964;2023-02-13T16:01:06;9.20;99.90
39219;DHT22;24934;52.752;6.964;2023-02-13T16:03:33;9.10;99.90
39219;DHT22;24934;52.752;6.964;2023-02-13T16:05:59;9.10;99.90
39219;DHT22;24934;52.752;6.964;2023-02-13T16:13:49;8.80;99.90
39219;DHT22;24934;52.752;6.964;2023-02-13T16:16:15;8.70;99.90
39219;DHT22;24934;52.752;6.964;2023-02-13T16:18:48;8.60;99.90
39219;DHT22;24934;52.752;6.964;2023-02-13T16:21:14;8.40;99.90
39219;DHT22;24934;52.752;6.964;2023-02-13T16:23:44;8.30;99.90
39219;DHT22;24934;52.752;6.964;2023-02-13T16:26:13;8.20;99.90
39219;DHT22;24934;52.752;6.964;2023-02-13T16:28:45;8.00;99.90
39219;DHT22;24934;52.752;6.964;2023-02-13T16:31:15;7.90;99.90
39219;DHT22;24934;52.752;6.964;2023-02-13T16:33:42;7.80;99.90
39219;DHT22;24934;52.752;6.964;2023-02-13T16:38:47;7.60;99.90
39219;DHT22;24934;52.752;6.964;2023-02-13T16:51:33;7.10;99.90
39219;DHT22;24934;52.752;6.964;2023-02-13T16:54:19;7.00;99.90
39219;DHT22;24934;52.752;6.964;2023-02-13T17:00:02;6.60;99.90
39219;DHT22;24934;52.752;6.964;2023-02-13T17:02:36;6.40;99.90
39219;DHT22;24934;52.752;6.964;2023-02-13T17:07:41;6.00;99.90
39219;DHT22;24934;52.752;6.964;2023-02-13T17:12:49;5.70;99.90
39219;DHT22;24934;52.752;6.964;2023-02-13T17:15:18;5.60;99.90
39219;DHT22;24934;52.752;6.964;2023-02-13T17:17:44;5.50;99.90
39219;DHT22;24934;52.752;6.964;2023-02-13T17:20:19;5.40;99.90
39219;DHT22;24934;52.752;6.964;2023-02-13T17:22:46;5.30;99.90
39219;DHT22;24934;52.752;6.964;2023-02-13T17:25:26;5.30;99.90
39219;DHT22;24934;52.752;6.964;2023-02-13T17:27:55;5.30;99.90
39219;DHT22;24934;52.752;6.964;2023-02-13T17:30:24;5.20;99.90
39219;DHT22;24934;52.752;6.964;2023-02-13T17:32:54;5.10;99.90
39219;DHT22;24934;52.752;6.964;2023-02-13T17:35:21;5.10;99.90
39219;DHT22;24934;52.752;6.964;2023-02-13T17:37:47;5.10;99.90
39219;DHT22;24934;52.752;6.964;2023-02-13T17:40:18;5.00;99.90
39219;DHT22;24934;52.752;6.964;2023-02-13T17:42:46;4.90;99.90
39219;DHT22;24934;52.752;6.964;2023-02-13T17:45:16;4.90;99.90
39219;DHT22;24934;52.752;6.964;2023-02-13T17:47:43;4.90;99.90
39219;DHT22;24934;52.752;6.964;2023-02-13T17:50:09;4.90;99.90
39219;DHT22;24934;52.752;6.964;2023-02-13T17:52:35;4.80;99.90
39219;DHT22;24934;52.752;6.964;2023-02-13T17:55:01;4.80;99.90
39219;DHT22;24934;52.752;6.964;2023-02-13T17:57:27;4.70;99.90
39219;DHT22;24934;52.752;6.964;2023-02-13T17:59:53;4.60;99.90
39219;DHT22;24934;52.752;6.964;2023-02-13T18:02:22;4.60;99.90
39219;DHT22;24934;52.752;6.964;2023-02-13T18:04:48;4.50;99.90
39219;DHT22;24934;52.752;6.964;2023-02-13T18:07:16;4.60;99.90
39219;DHT22;24934;52.752;6.964;2023-02-13T18:09:42;4.60;99.90
39219;DHT22;24934;52.752;6.964;2023-02-13T18:12:13;4.50;99.90
39219;DHT22;24934;52.752;6.964;2023-02-13T18:14:39;4.50;99.90
39219;DHT22;24934;52.752;6.964;2023-02-13T18:17:05;4.50;99.90
39219;DHT22;24934;52.752;6.964;2023-02-13T18:19:31;4.60;99.90
39219;DHT22;24934;52.752;6.964;2023-02-13T18:21:56;4.60;99.90
39219;DHT22;24934;52.752;6.964;2023-02-13T18:24:30;4.50;99.90
39219;DHT22;24934;52.752;6.964;2023-02-13T18:26:56;4.60;99.90
39219;DHT22;24934;52.752;6.964;2023-02-13T18:29:23;4.50;99.90
39219;DHT22;24934;52.752;6.964;2023-02-13T18:31:48;4.50;99.90
39219;DHT22;24934;52.752;6.964;2023-02-13T18:34:17;4.60;99.90
39219;DHT22;24934;52.752;6.964;2023-02-13T18:36:43;4.60;99.90
39219;DHT22;24934;52.752;6.964;2023-02-13T18:39:08;4.60;99.90
39219;DHT22;24934;52.752;6.964;2023-02-13T18:41:34;4.50;99.90
39219;DHT22;24934;52.752;6.964;2023-02-13T18:43:59;4.50;99.90
39219;DHT22;24934;52.752;6.964;2023-02-13T18:46:25;4.40;99.90
39219;DHT22;24934;52.752;6.964;2023-02-13T18:48:51;4.40;99.90
39219;DHT22;24934;52.752;6.964;2023-02-13T18:51:16;4.40;99.90
39219;DHT22;24934;52.752;6.964;2023-02-13T18:53:42;4.40;99.90
39219;DHT22;24934;52.752;6.964;2023-02-13T18:56:10;4.40;99.90
39219;DHT22;24934;52.752;6.964;2023-02-13T18:58:36;4.40;99.90
39219;DHT22;24934;52.752;6.964;2023-02-13T19:01:13;4.40;99.90
39219;DHT22;24934;52.752;6.964;2023-02-13T19:03:39;4.30;99.90
39219;DHT22;24934;52.752;6.964;2023-02-13T19:06:10;4.30;99.90
39219;DHT22;24934;52.752;6.964;2023-02-13T19:08:36;4.30;99.90